sensor_id;sensor_type;location;lat;lon;timestamp;temperature;humidity
28552;DHT22;15752;49.560;8.708;2023-06-04T00:01:27;20.00;57.90
28552;DHT22;15752;49.560;8.708;2023-06-04T00:03:56;20.00;57.60
28552;DHT22;15752;49.560;8.708;2023-06-04T00:06:25;20.00;57.80
28552;DHT22;15752;49.560;8.708;2023-06-04T00:08:53;20.00;57.70
28552;DHT22;15752;49.560;8.708;2023-06-04T00:11:22;20.00;57.70
28552;DHT22;15752;49.560;8.708;2023-06-04T00:13:51;19.90;57.80
28552;DHT22;15752;49.560;8.708;2023-06-04T00:16:20;20.00;58.00
28552;DHT22;15752;49.560;8.708;2023-06-04T00:18:48;20.00;57.90
28552;DHT22;15752;49.560;8.708;2023-06-04T00:21:17;20.00;58.10
28552;DHT22;15752;49.560;8.708;2023-06-04T00:23:45;19.90;58.10
28552;DHT22;15752;49.560;8.708;2023-06-04T00:26:13;19.90;57.20
28552;DHT22;15752;49.560;8.708;2023-06-04T00:28:46;19.90;57.20
28552;DHT22;15752;49.560;8.708;2023-06-04T00:31:16;19.90;56.90
28552;DHT22;15752;49.560;8.708;2023-06-04T00:33:44;19.90;56.60
28552;DHT22;15752;49.560;8.708;2023-06-04T00:36:13;19.90;56.90
28552;DHT22;15752;49.560;8.708;2023-06-04T00:38:41;19.90;57.50
28552;DHT22;15752;49.560;8.708;2023-06-04T00:41:10;19.90;57.50
28552;DHT22;15752;49.560;8.708;2023-06-04T00:43:38;19.80;57.50
28552;DHT22;15752;49.560;8.708;2023-06-04T00:46:06;19.80;57.10
28552;DHT22;15752;49.560;8.708;2023-06-04T00:48:36;19.80;57.40
28552;DHT22;15752;49.560;8.708;2023-06-04T00:51:06;19.80;57.40
28552;DHT22;15752;49.560;8.708;2023-06-04T00:53:34;19.80;56.70
28552;DHT22;15752;49.560;8.708;2023-06-04T00:56:03;19.80;56.40
28552;DHT22;15752;49.560;8.708;2023-06-04T00:58:33;19.80;56.80
28552;DHT22;15752;49.560;8.708;2023-06-04T01:01:10;19.70;56.00
28552;DHT22;15752;49.560;8.708;2023-06-04T01:03:50;19.70;55.70
28552;DHT22;15752;49.560;8.708;2023-06-04T01:06:22;19.70;57.50
28552;DHT22;15752;49.560;8.708;2023-06-04T01:08:55;19.70;57.30
28552;DHT22;15752;49.560;8.708;2023-06-04T01:11:34;19.70;56.60
28552;DHT22;15752;49.560;8.708;2023-06-04T01:14:04;19.70;57.40
28552;DHT22;15752;49.560;8.708;2023-06-04T01:16:38;19.70;57.30
28552;DHT22;15752;49.560;8.708;2023-06-04T01:19:26;19.60;57.70
28552;DHT22;15752;49.560;8.708;2023-06-04T01:22:12;19.60;57.60
28552;DHT22;15752;49.560;8.708;2023-06-04T01:24:53;19.60;57.40
28552;DHT22;15752;49.560;8.708;2023-06-04T01:27:24;19.60;56.70
28552;DHT22;15752;49.560;8.708;2023-06-04T01:29:53;19.60;56.90
28552;DHT22;15752;49.560;8.708;2023-06-04T01:32:24;19.60;56.00
28552;DHT22;15752;49.560;8.708;2023-06-04T01:34:55;19.60;56.80
28552;DHT22;15752;49.560;8.708;2023-06-04T01:37:23;19.60;57.20
28552;DHT22;15752;49.560;8.708;2023-06-04T01:39:53;19.60;56.40
28552;DHT22;15752;49.560;8.708;2023-06-04T01:42:21;19.60;56.30
28552;DHT22;15752;49.560;8.708;2023-06-04T01:44:50;19.50;55.70
28552;DHT22;15752;49.560;8.708;2023-06-04T01:47:18;19.50;56.20
28552;DHT22;15752;49.560;8.708;2023-06-04T01:49:47;19.50;55.50
28552;DHT22;15752;49.560;8.708;2023-06-04T01:52:17;19.50;56.40
28552;DHT22;15752;49.560;8.708;2023-06-04T01:54:47;19.50;56.50
28552;DHT22;15752;49.560;8.708;2023-06-04T01:57:19;19.50;57.00
28552;DHT22;15752;49.560;8.708;2023-06-04T01:59:48;19.50;57.60
28552;DHT22;15752;49.560;8.708;2023-06-04T02:02:17;19.50;56.90
28552;DHT22;15752;49.560;8.708;2023-06-04T02:04:46;19.40;57.30
28552;DHT22;15752;49.560;8.708;2023-06-04T02:07:19;19.40;58.20
28552;DHT22;15752;49.560;8.708;2023-06-04T02:09:48;19.40;57.20
28552;DHT22;15752;49.560;8.708;2023-06-04T02:12:18;19.40;57.70
28552;DHT22;15752;49.560;8.708;2023-06-04T02:14:46;19.40;57.30
28552;DHT22;15752;49.560;8.708;2023-06-04T02:17:15;19.40;57.00
28552;DHT22;15752;49.560;8.708;2023-06-04T02:19:44;19.40;57.80
28552;DHT22;15752;49.560;8.708;2023-06-04T02:22:17;19.40;59.10
28552;DHT22;15752;49.560;8.708;2023-06-04T02:24:47;19.40;57.90
28552;DHT22;15752;49.560;8.708;2023-06-04T02:27:15;19.40;57.50
28552;DHT22;15752;49.560;8.708;2023-06-04T02:29:44;19.30;58.00
28552;DHT22;15752;49.560;8.708;2023-06-04T02:32:13;19.30;57.20
28552;DHT22;15752;49.560;8.708;2023-06-04T02:34:41;19.30;57.80
28552;DHT22;15752;49.560;8.708;2023-06-04T02:37:10;19.30;57.50
28552;DHT22;15752;49.560;8.708;2023-06-04T02:39:38;19.20;57.00
28552;DHT22;15752;49.560;8.708;2023-06-04T02:42:09;19.20;57.80
28552;DHT22;15752;49.560;8.708;2023-06-04T02:44:37;19.20;58.30
28552;DHT22;15752;49.560;8.708;2023-06-04T02:47:06;19.20;57.50
28552;DHT22;15752;49.560;8.708;2023-06-04T02:49:35;19.20;58.30
28552;DHT22;15752;49.560;8.708;2023-06-04T02:52:03;19.10;57.30
28552;DHT22;15752;49.560;8.708;2023-06-04T02:54:32;19.10;58.40
28552;DHT22;15752;49.560;8.708;2023-06-04T02:57:00;19.10;57.90
28552;DHT22;15752;49.560;8.708;2023-06-04T02:59:30;19.10;57.70
28552;DHT22;15752;49.560;8.708;2023-06-04T03:01:59;19.10;58.30
28552;DHT22;15752;49.560;8.708;2023-06-04T03:04:27;19.10;57.90
28552;DHT22;15752;49.560;8.708;2023-06-04T03:07:01;19.00;58.90
28552;DHT22;15752;49.560;8.708;2023-06-04T03:09:30;19.00;58.70
28552;DHT22;15752;49.560;8.708;2023-06-04T03:12:00;19.00;59.30
28552;DHT22;15752;49.560;8.708;2023-06-04T03:14:32;19.00;59.00
28552;DHT22;15752;49.560;8.708;2023-06-04T03:17:01;18.90;59.10
28552;DHT22;15752;49.560;8.708;2023-06-04T03:19:35;18.90;59.20
28552;DHT22;15752;49.560;8.708;2023-06-04T03:22:05;18.90;59.20
28552;DHT22;15752;49.560;8.708;2023-06-04T03:24:35;18.80;59.20
28552;DHT22;15752;49.560;8.708;2023-06-04T03:27:05;18.80;59.90
28552;DHT22;15752;49.560;8.708;2023-06-04T03:29:37;18.80;59.30
28552;DHT22;15752;49.560;8.708;2023-06-04T03:32:07;18.80;58.90
28552;DHT22;15752;49.560;8.708;2023-06-04T03:34:37;18.80;59.40
28552;DHT22;15752;49.560;8.708;2023-06-04T03:37:05;18.80;58.10
28552;DHT22;15752;49.560;8.708;2023-06-04T03:39:34;18.70;58.70
28552;DHT22;15752;49.560;8.708;2023-06-04T03:42:05;18.70;58.30
28552;DHT22;15752;49.560;8.708;2023-06-04T03:44:33;18.70;58.30
28552;DHT22;15752;49.560;8.708;2023-06-04T03:47:04;18.70;58.00
28552;DHT22;15752;49.560;8.708;2023-06-04T03:49:33;18.70;58.50
28552;DHT22;15752;49.560;8.708;2023-06-04T03:52:01;18.70;58.80
28552;DHT22;15752;49.560;8.708;2023-06-04T03:54:30;18.70;58.60
28552;DHT22;15752;49.560;8.708;2023-06-04T03:56:59;18.70;58.40
28552;DHT22;15752;49.560;8.708;2023-06-04T03:59:29;18.60;58.60
28552;DHT22;15752;49.560;8.708;2023-06-04T04:01:58;18.60;58.20
28552;DHT22;15752;49.560;8.708;2023-06-04T04:04:29;18.60;57.90
28552;DHT22;15752;49.560;8.708;2023-06-04T04:06:57;18.60;59.10
28552;DHT22;15752;49.560;8.708;2023-06-04T04:09:27;18.60;58.20
28552;DHT22;15752;49.560;8.708;2023-06-04T04:11:55;18.60;59.30
28552;DHT22;15752;49.560;8.708;2023-06-04T04:14:24;18.60;59.50
28552;DHT22;15752;49.560;8.708;2023-06-04T04:16:53;18.60;59.10
28552;DHT22;15752;49.560;8.708;2023-06-04T04:19:22;18.60;59.90
28552;DHT22;15752;49.560;8.708;2023-06-04T04:21:52;18.50;59.60
28552;DHT22;15752;49.560;8.708;2023-06-04T04:24:24;18.50;59.30
28552;DHT22;15752;49.560;8.708;2023-06-04T04:26:57;18.50;59.90
28552;DHT22;15752;49.560;8.708;2023-06-04T04:29:26;18.50;58.90
28552;DHT22;15752;49.560;8.708;2023-06-04T04:32:01;18.50;59.20
28552;DHT22;15752;49.560;8.708;2023-06-04T04:34:38;18.50;60.10
28552;DHT22;15752;49.560;8.708;2023-06-04T04:37:12;18.50;59.80
28552;DHT22;15752;49.560;8.708;2023-06-04T04:39:41;18.50;58.90
28552;DHT22;15752;49.560;8.708;2023-06-04T04:42:09;18.50;59.20
28552;DHT22;15752;49.560;8.708;2023-06-04T04:44:38;18.50;59.80
28552;DHT22;15752;49.560;8.708;2023-06-04T04:47:06;18.50;59.50
28552;DHT22;15752;49.560;8.708;2023-06-04T04:49:35;18.50;59.70
28552;DHT22;15752;49.560;8.708;2023-06-04T04:52:03;18.50;59.50
28552;DHT22;15752;49.560;8.708;2023-06-04T04:54:33;18.50;59.60
28552;DHT22;15752;49.560;8.708;2023-06-04T04:57:02;18.50;59.70
28552;DHT22;15752;49.560;8.708;2023-06-04T04:59:42;18.50;59.90
28552;DHT22;15752;49.560;8.708;2023-06-04T05:02:11;18.50;59.30
28552;DHT22;15752;49.560;8.708;2023-06-04T05:04:40;18.50;58.80
28552;DHT22;15752;49.560;8.708;2023-06-04T05:07:09;18.50;59.20
28552;DHT22;15752;49.560;8.708;2023-06-04T05:09:40;18.50;58.60
28552;DHT22;15752;49.560;8.708;2023-06-04T05:12:10;18.50;59.10
28552;DHT22;15752;49.560;8.708;2023-06-04T05:14:38;18.50;58.20
28552;DHT22;15752;49.560;8.708;2023-06-04T05:17:09;18.50;57.80
28552;DHT22;15752;49.560;8.708;2023-06-04T05:19:41;18.50;58.00
28552;DHT22;15752;49.560;8.708;2023-06-04T05:22:10;18.50;57.50
28552;DHT22;15752;49.560;8.708;2023-06-04T05:24:41;18.50;57.70
28552;DHT22;15752;49.560;8.708;2023-06-04T05:27:09;18.50;58.70
28552;DHT22;15752;49.560;8.708;2023-06-04T05:29:38;18.50;58.80
28552;DHT22;15752;49.560;8.708;2023-06-04T05:32:06;18.50;59.60
28552;DHT22;15752;49.560;8.708;2023-06-04T05:34:35;18.50;59.10
28552;DHT22;15752;49.560;8.708;2023-06-04T05:37:05;18.50;59.10
28552;DHT22;15752;49.560;8.708;2023-06-04T05:39:38;18.50;57.80
28552;DHT22;15752;49.560;8.708;2023-06-04T05:42:17;18.50;57.20
28552;DHT22;15752;49.560;8.708;2023-06-04T05:44:45;18.50;57.40
28552;DHT22;15752;49.560;8.708;2023-06-04T05:47:16;18.50;57.30
28552;DHT22;15752;49.560;8.708;2023-06-04T05:49:45;18.50;57.80
28552;DHT22;15752;49.560;8.708;2023-06-04T05:52:13;18.60;58.60
28552;DHT22;15752;49.560;8.708;2023-06-04T05:54:44;18.60;58.90
28552;DHT22;15752;49.560;8.708;2023-06-04T05:57:13;18.60;59.00
28552;DHT22;15752;49.560;8.708;2023-06-04T05:59:43;18.60;58.90
28552;DHT22;15752;49.560;8.708;2023-06-04T06:02:15;18.60;57.70
28552;DHT22;15752;49.560;8.708;2023-06-04T06:04:43;18.60;57.80
28552;DHT22;15752;49.560;8.708;2023-06-04T06:07:12;18.60;58.40
28552;DHT22;15752;49.560;8.708;2023-06-04T06:09:41;18.60;58.00
28552;DHT22;15752;49.560;8.708;2023-06-04T06:12:09;18.70;58.50
28552;DHT22;15752;49.560;8.708;2023-06-04T06:14:40;18.70;58.20
28552;DHT22;15752;49.560;8.708;2023-06-04T06:17:10;18.70;58.30
28552;DHT22;15752;49.560;8.708;2023-06-04T06:19:39;18.70;58.40
28552;DHT22;15752;49.560;8.708;2023-06-04T06:22:07;18.70;58.70
28552;DHT22;15752;49.560;8.708;2023-06-04T06:24:36;18.80;58.70
28552;DHT22;15752;49.560;8.708;2023-06-04T06:27:05;18.80;58.50
28552;DHT22;15752;49.560;8.708;2023-06-04T06:29:34;18.80;58.20
28552;DHT22;15752;49.560;8.708;2023-06-04T06:32:02;18.90;57.40
28552;DHT22;15752;49.560;8.708;2023-06-04T06:34:33;18.90;58.20
28552;DHT22;15752;49.560;8.708;2023-06-04T06:37:01;18.90;57.40
28552;DHT22;15752;49.560;8.708;2023-06-04T06:39:30;19.00;57.60
28552;DHT22;15752;49.560;8.708;2023-06-04T06:41:59;19.00;57.60
28552;DHT22;15752;49.560;8.708;2023-06-04T06:44:34;19.00;56.80
28552;DHT22;15752;49.560;8.708;2023-06-04T06:47:02;19.10;56.80
28552;DHT22;15752;49.560;8.708;2023-06-04T06:49:32;19.10;58.20
28552;DHT22;15752;49.560;8.708;2023-06-04T06:52:01;19.20;58.00
28552;DHT22;15752;49.560;8.708;2023-06-04T06:54:30;19.20;58.10
28552;DHT22;15752;49.560;8.708;2023-06-04T06:56:58;19.30;58.20
28552;DHT22;15752;49.560;8.708;2023-06-04T06:59:27;19.30;56.70
28552;DHT22;15752;49.560;8.708;2023-06-04T07:01:56;19.40;57.50
28552;DHT22;15752;49.560;8.708;2023-06-04T07:04:24;19.40;56.80
28552;DHT22;15752;49.560;8.708;2023-06-04T07:06:54;19.50;56.70
28552;DHT22;15752;49.560;8.708;2023-06-04T07:09:23;19.50;56.90
28552;DHT22;15752;49.560;8.708;2023-06-04T07:11:51;19.60;57.10
28552;DHT22;15752;49.560;8.708;2023-06-04T07:14:20;19.60;57.40
28552;DHT22;15752;49.560;8.708;2023-06-04T07:16:49;19.70;57.20
28552;DHT22;15752;49.560;8.708;2023-06-04T07:19:17;19.80;57.10
28552;DHT22;15752;49.560;8.708;2023-06-04T07:21:46;19.90;57.70
28552;DHT22;15752;49.560;8.708;2023-06-04T07:24:16;19.90;57.90
28552;DHT22;15752;49.560;8.708;2023-06-04T07:26:44;20.00;56.30
28552;DHT22;15752;49.560;8.708;2023-06-04T07:29:13;20.00;56.60
28552;DHT22;15752;49.560;8.708;2023-06-04T07:31:42;20.10;56.90
28552;DHT22;15752;49.560;8.708;2023-06-04T07:34:10;20.20;57.40
28552;DHT22;15752;49.560;8.708;2023-06-04T07:36:45;20.20;57.10
28552;DHT22;15752;49.560;8.708;2023-06-04T07:39:26;20.30;56.50
28552;DHT22;15752;49.560;8.708;2023-06-04T07:41:54;20.40;56.90
28552;DHT22;15752;49.560;8.708;2023-06-04T07:44:22;20.40;56.50
28552;DHT22;15752;49.560;8.708;2023-06-04T07:46:51;20.50;56.20
28552;DHT22;15752;49.560;8.708;2023-06-04T07:49:19;20.60;57.40
28552;DHT22;15752;49.560;8.708;2023-06-04T07:51:48;20.60;56.70
28552;DHT22;15752;49.560;8.708;2023-06-04T07:54:16;20.70;56.60
28552;DHT22;15752;49.560;8.708;2023-06-04T07:56:46;20.80;56.60
28552;DHT22;15752;49.560;8.708;2023-06-04T07:59:15;20.80;56.30
28552;DHT22;15752;49.560;8.708;2023-06-04T08:01:43;20.90;56.50
28552;DHT22;15752;49.560;8.708;2023-06-04T08:04:12;21.00;56.30
28552;DHT22;15752;49.560;8.708;2023-06-04T08:06:41;21.10;57.40
28552;DHT22;15752;49.560;8.708;2023-06-04T08:09:10;21.10;57.10
28552;DHT22;15752;49.560;8.708;2023-06-04T08:11:41;21.20;57.10
28552;DHT22;15752;49.560;8.708;2023-06-04T08:14:12;21.30;56.70
28552;DHT22;15752;49.560;8.708;2023-06-04T08:16:40;21.40;56.20
28552;DHT22;15752;49.560;8.708;2023-06-04T08:19:09;21.50;56.30
28552;DHT22;15752;49.560;8.708;2023-06-04T08:21:37;21.60;56.30
28552;DHT22;15752;49.560;8.708;2023-06-04T08:24:08;21.70;55.20
28552;DHT22;15752;49.560;8.708;2023-06-04T08:26:37;21.80;55.30
28552;DHT22;15752;49.560;8.708;2023-06-04T08:29:05;21.90;54.40
28552;DHT22;15752;49.560;8.708;2023-06-04T08:31:35;22.00;54.70
28552;DHT22;15752;49.560;8.708;2023-06-04T08:34:06;22.10;53.70
28552;DHT22;15752;49.560;8.708;2023-06-04T08:36:35;22.20;54.90
28552;DHT22;15752;49.560;8.708;2023-06-04T08:39:04;22.30;53.20
28552;DHT22;15752;49.560;8.708;2023-06-04T08:41:39;22.30;53.10
28552;DHT22;15752;49.560;8.708;2023-06-04T08:44:11;22.40;53.90
28552;DHT22;15752;49.560;8.708;2023-06-04T08:46:43;22.50;53.00
28552;DHT22;15752;49.560;8.708;2023-06-04T08:49:12;22.60;53.80
28552;DHT22;15752;49.560;8.708;2023-06-04T08:51:42;22.70;52.80
28552;DHT22;15752;49.560;8.708;2023-06-04T08:54:11;22.80;52.70
28552;DHT22;15752;49.560;8.708;2023-06-04T08:56:42;22.80;53.80
28552;DHT22;15752;49.560;8.708;2023-06-04T08:59:11;22.90;53.30
28552;DHT22;15752;49.560;8.708;2023-06-04T09:01:43;23.00;52.70
28552;DHT22;15752;49.560;8.708;2023-06-04T09:04:12;23.10;52.80
28552;DHT22;15752;49.560;8.708;2023-06-04T09:06:42;23.10;52.30
28552;DHT22;15752;49.560;8.708;2023-06-04T09:09:12;23.20;52.60
28552;DHT22;15752;49.560;8.708;2023-06-04T09:11:46;23.30;52.20
28552;DHT22;15752;49.560;8.708;2023-06-04T09:14:20;23.40;51.70
28552;DHT22;15752;49.560;8.708;2023-06-04T09:16:51;23.40;51.60
28552;DHT22;15752;49.560;8.708;2023-06-04T09:19:20;23.50;51.50
28552;DHT22;15752;49.560;8.708;2023-06-04T09:21:50;23.50;51.50
28552;DHT22;15752;49.560;8.708;2023-06-04T09:24:21;23.60;51.50
28552;DHT22;15752;49.560;8.708;2023-06-04T09:26:51;23.60;51.60
28552;DHT22;15752;49.560;8.708;2023-06-04T09:29:20;23.70;51.90
28552;DHT22;15752;49.560;8.708;2023-06-04T09:31:58;23.70;51.40
28552;DHT22;15752;49.560;8.708;2023-06-04T09:34:27;23.80;49.20
28552;DHT22;15752;49.560;8.708;2023-06-04T09:36:58;23.90;50.50
28552;DHT22;15752;49.560;8.708;2023-06-04T09:39:27;23.90;50.50
28552;DHT22;15752;49.560;8.708;2023-06-04T09:41:58;24.00;50.70
28552;DHT22;15752;49.560;8.708;2023-06-04T09:44:29;24.00;50.30
28552;DHT22;15752;49.560;8.708;2023-06-04T09:46:59;24.10;51.10
28552;DHT22;15752;49.560;8.708;2023-06-04T09:49:27;24.10;50.60
28552;DHT22;15752;49.560;8.708;2023-06-04T09:51:56;24.20;50.10
28552;DHT22;15752;49.560;8.708;2023-06-04T09:54:35;24.20;50.30
28552;DHT22;15752;49.560;8.708;2023-06-04T09:57:10;24.30;49.50
28552;DHT22;15752;49.560;8.708;2023-06-04T09:59:44;24.30;49.70
28552;DHT22;15752;49.560;8.708;2023-06-04T10:02:19;24.40;49.20
28552;DHT22;15752;49.560;8.708;2023-06-04T10:04:52;24.40;49.80
28552;DHT22;15752;49.560;8.708;2023-06-04T10:07:24;24.40;50.10
28552;DHT22;15752;49.560;8.708;2023-06-04T10:09:53;24.40;50.00
28552;DHT22;15752;49.560;8.708;2023-06-04T10:12:25;24.40;49.80
28552;DHT22;15752;49.560;8.708;2023-06-04T10:14:58;24.40;49.60
28552;DHT22;15752;49.560;8.708;2023-06-04T10:17:32;24.40;50.00
28552;DHT22;15752;49.560;8.708;2023-06-04T10:20:02;24.40;49.90
28552;DHT22;15752;49.560;8.708;2023-06-04T10:22:32;24.50;49.20
28552;DHT22;15752;49.560;8.708;2023-06-04T10:25:01;24.50;50.20
28552;DHT22;15752;49.560;8.708;2023-06-04T10:27:31;24.60;48.20
28552;DHT22;15752;49.560;8.708;2023-06-04T10:30:02;24.60;49.20
28552;DHT22;15752;49.560;8.708;2023-06-04T10:32:33;24.70;48.70
28552;DHT22;15752;49.560;8.708;2023-06-04T10:35:04;24.70;49.00
28552;DHT22;15752;49.560;8.708;2023-06-04T10:37:34;24.80;48.70
28552;DHT22;15752;49.560;8.708;2023-06-04T10:40:04;24.80;49.50
28552;DHT22;15752;49.560;8.708;2023-06-04T10:42:38;24.90;49.50
28552;DHT22;15752;49.560;8.708;2023-06-04T10:45:09;24.90;49.10
28552;DHT22;15752;49.560;8.708;2023-06-04T10:47:40;25.00;49.20
28552;DHT22;15752;49.560;8.708;2023-06-04T10:50:12;25.00;47.60
28552;DHT22;15752;49.560;8.708;2023-06-04T10:52:51;25.10;48.60
28552;DHT22;15752;49.560;8.708;2023-06-04T10:55:20;25.10;47.80
28552;DHT22;15752;49.560;8.708;2023-06-04T10:57:53;25.20;47.30
28552;DHT22;15752;49.560;8.708;2023-06-04T11:00:34;25.20;48.20
28552;DHT22;15752;49.560;8.708;2023-06-04T11:03:06;25.20;48.10
28552;DHT22;15752;49.560;8.708;2023-06-04T11:05:36;25.20;47.20
28552;DHT22;15752;49.560;8.708;2023-06-04T11:08:07;25.20;47.50
28552;DHT22;15752;49.560;8.708;2023-06-04T11:10:38;25.20;47.90
28552;DHT22;15752;49.560;8.708;2023-06-04T11:13:07;25.20;48.10
28552;DHT22;15752;49.560;8.708;2023-06-04T11:15:39;25.20;47.40
28552;DHT22;15752;49.560;8.708;2023-06-04T11:18:13;25.20;48.10
28552;DHT22;15752;49.560;8.708;2023-06-04T11:20:44;25.20;47.60
28552;DHT22;15752;49.560;8.708;2023-06-04T11:23:13;25.20;47.40
28552;DHT22;15752;49.560;8.708;2023-06-04T11:25:43;25.20;47.80
28552;DHT22;15752;49.560;8.708;2023-06-04T11:28:16;25.20;47.10
28552;DHT22;15752;49.560;8.708;2023-06-04T11:30:56;25.30;46.80
28552;DHT22;15752;49.560;8.708;2023-06-04T11:33:26;25.20;47.90
28552;DHT22;15752;49.560;8.708;2023-06-04T11:35:55;25.30;46.90
28552;DHT22;15752;49.560;8.708;2023-06-04T11:38:24;25.30;46.60
28552;DHT22;15752;49.560;8.708;2023-06-04T11:40:57;25.30;47.00
28552;DHT22;15752;49.560;8.708;2023-06-04T11:43:27;25.30;46.50
28552;DHT22;15752;49.560;8.708;2023-06-04T11:45:56;25.40;47.90
28552;DHT22;15752;49.560;8.708;2023-06-04T11:48:27;25.40;47.10
28552;DHT22;15752;49.560;8.708;2023-06-04T11:50:57;25.40;46.90
28552;DHT22;15752;49.560;8.708;2023-06-04T11:53:28;25.40;46.50
28552;DHT22;15752;49.560;8.708;2023-06-04T11:55:57;25.40;46.30
28552;DHT22;15752;49.560;8.708;2023-06-04T11:58:26;25.40;45.90
28552;DHT22;15752;49.560;8.708;2023-06-04T12:00:55;25.50;45.40
28552;DHT22;15752;49.560;8.708;2023-06-04T12:03:34;25.50;46.20
28552;DHT22;15752;49.560;8.708;2023-06-04T12:06:12;25.40;46.00
28552;DHT22;15752;49.560;8.708;2023-06-04T12:08:47;25.50;46.00
28552;DHT22;15752;49.560;8.708;2023-06-04T12:11:30;25.50;46.60
28552;DHT22;15752;49.560;8.708;2023-06-04T12:14:03;25.50;45.60
28552;DHT22;15752;49.560;8.708;2023-06-04T12:16:33;25.50;46.20
28552;DHT22;15752;49.560;8.708;2023-06-04T12:19:09;25.50;45.90
28552;DHT22;15752;49.560;8.708;2023-06-04T12:21:38;25.60;46.40
28552;DHT22;15752;49.560;8.708;2023-06-04T12:24:10;25.60;46.60
28552;DHT22;15752;49.560;8.708;2023-06-04T12:26:41;25.70;46.30
28552;DHT22;15752;49.560;8.708;2023-06-04T12:29:16;25.70;46.00
28552;DHT22;15752;49.560;8.708;2023-06-04T12:31:47;25.70;45.30
28552;DHT22;15752;49.560;8.708;2023-06-04T12:34:17;25.70;44.00
28552;DHT22;15752;49.560;8.708;2023-06-04T12:36:45;25.70;45.10
28552;DHT22;15752;49.560;8.708;2023-06-04T12:39:14;25.80;45.00
28552;DHT22;15752;49.560;8.708;2023-06-04T12:41:46;25.80;45.60
28552;DHT22;15752;49.560;8.708;2023-06-04T12:44:14;25.80;44.50
28552;DHT22;15752;49.560;8.708;2023-06-04T12:46:43;25.90;45.70
28552;DHT22;15752;49.560;8.708;2023-06-04T12:49:13;25.90;45.70
28552;DHT22;15752;49.560;8.708;2023-06-04T12:51:45;26.00;45.40
28552;DHT22;15752;49.560;8.708;2023-06-04T12:54:13;26.00;44.70
28552;DHT22;15752;49.560;8.708;2023-06-04T12:56:43;26.10;44.60
28552;DHT22;15752;49.560;8.708;2023-06-04T12:59:12;26.10;44.70
28552;DHT22;15752;49.560;8.708;2023-06-04T13:01:40;26.20;44.50
28552;DHT22;15752;49.560;8.708;2023-06-04T13:04:09;26.20;44.00
28552;DHT22;15752;49.560;8.708;2023-06-04T13:06:38;26.20;44.00
28552;DHT22;15752;49.560;8.708;2023-06-04T13:09:08;26.30;43.80
28552;DHT22;15752;49.560;8.708;2023-06-04T13:11:37;26.30;42.70
28552;DHT22;15752;49.560;8.708;2023-06-04T13:14:07;26.30;44.50
28552;DHT22;15752;49.560;8.708;2023-06-04T13:16:37;26.30;43.90
28552;DHT22;15752;49.560;8.708;2023-06-04T13:19:06;26.40;44.40
28552;DHT22;15752;49.560;8.708;2023-06-04T13:21:35;26.40;43.10
28552;DHT22;15752;49.560;8.708;2023-06-04T13:24:04;26.40;42.20
28552;DHT22;15752;49.560;8.708;2023-06-04T13:26:35;26.50;42.80
28552;DHT22;15752;49.560;8.708;2023-06-04T13:29:06;26.50;41.70
28552;DHT22;15752;49.560;8.708;2023-06-04T13:31:34;26.50;42.90
28552;DHT22;15752;49.560;8.708;2023-06-04T13:34:02;26.50;42.60
28552;DHT22;15752;49.560;8.708;2023-06-04T13:36:51;26.60;43.60
28552;DHT22;15752;49.560;8.708;2023-06-04T13:39:19;26.60;43.70
28552;DHT22;15752;49.560;8.708;2023-06-04T13:41:49;26.60;43.40
28552;DHT22;15752;49.560;8.708;2023-06-04T13:44:18;26.70;42.40
28552;DHT22;15752;49.560;8.708;2023-06-04T13:46:47;26.70;42.20
28552;DHT22;15752;49.560;8.708;2023-06-04T13:49:16;26.70;42.80
28552;DHT22;15752;49.560;8.708;2023-06-04T13:51:44;26.80;42.80
28552;DHT22;15752;49.560;8.708;2023-06-04T13:54:12;26.80;42.80
28552;DHT22;15752;49.560;8.708;2023-06-04T13:56:41;26.80;42.20
28552;DHT22;15752;49.560;8.708;2023-06-04T13:59:11;26.90;42.00
28552;DHT22;15752;49.560;8.708;2023-06-04T14:01:40;26.90;41.30
28552;DHT22;15752;49.560;8.708;2023-06-04T14:04:09;26.90;41.50
28552;DHT22;15752;49.560;8.708;2023-06-04T14:06:38;26.90;42.40
28552;DHT22;15752;49.560;8.708;2023-06-04T14:09:07;26.90;41.90
28552;DHT22;15752;49.560;8.708;2023-06-04T14:11:44;26.90;41.60
28552;DHT22;15752;49.560;8.708;2023-06-04T14:14:19;26.90;41.10
28552;DHT22;15752;49.560;8.708;2023-06-04T14:16:50;27.00;42.40
28552;DHT22;15752;49.560;8.708;2023-06-04T14:19:24;27.00;41.50
28552;DHT22;15752;49.560;8.708;2023-06-04T14:21:52;27.00;41.10
28552;DHT22;15752;49.560;8.708;2023-06-04T14:24:21;27.10;41.30
28552;DHT22;15752;49.560;8.708;2023-06-04T14:26:50;27.10;41.30
28552;DHT22;15752;49.560;8.708;2023-06-04T14:29:20;27.10;42.10
28552;DHT22;15752;49.560;8.708;2023-06-04T14:31:48;27.10;41.70
28552;DHT22;15752;49.560;8.708;2023-06-04T14:34:17;27.10;42.00
28552;DHT22;15752;49.560;8.708;2023-06-04T14:36:47;27.10;41.40
28552;DHT22;15752;49.560;8.708;2023-06-04T14:39:17;27.10;40.80
28552;DHT22;15752;49.560;8.708;2023-06-04T14:41:49;27.20;40.90
28552;DHT22;15752;49.560;8.708;2023-06-04T14:44:24;27.20;41.10
28552;DHT22;15752;49.560;8.708;2023-06-04T14:46:53;27.30;40.70
28552;DHT22;15752;49.560;8.708;2023-06-04T14:49:22;27.30;41.40
28552;DHT22;15752;49.560;8.708;2023-06-04T14:51:51;27.30;40.40
28552;DHT22;15752;49.560;8.708;2023-06-04T14:54:19;27.30;41.90
28552;DHT22;15752;49.560;8.708;2023-06-04T14:56:48;27.40;41.60
28552;DHT22;15752;49.560;8.708;2023-06-04T14:59:16;27.40;41.50
28552;DHT22;15752;49.560;8.708;2023-06-04T15:01:46;27.40;41.40
28552;DHT22;15752;49.560;8.708;2023-06-04T15:04:15;27.50;40.90
28552;DHT22;15752;49.560;8.708;2023-06-04T15:06:44;27.50;41.30
28552;DHT22;15752;49.560;8.708;2023-06-04T15:09:13;27.60;40.80
28552;DHT22;15752;49.560;8.708;2023-06-04T15:11:42;27.60;41.70
28552;DHT22;15752;49.560;8.708;2023-06-04T15:14:10;27.60;40.50
28552;DHT22;15752;49.560;8.708;2023-06-04T15:16:39;27.60;40.40
28552;DHT22;15752;49.560;8.708;2023-06-04T15:19:10;27.60;39.90
28552;DHT22;15752;49.560;8.708;2023-06-04T15:21:39;27.60;40.00
28552;DHT22;15752;49.560;8.708;2023-06-04T15:24:07;27.50;39.50
28552;DHT22;15752;49.560;8.708;2023-06-04T15:26:36;27.60;39.60
28552;DHT22;15752;49.560;8.708;2023-06-04T15:29:05;27.50;40.40
28552;DHT22;15752;49.560;8.708;2023-06-04T15:31:34;27.50;41.20
28552;DHT22;15752;49.560;8.708;2023-06-04T15:34:03;27.50;40.80
28552;DHT22;15752;49.560;8.708;2023-06-04T15:36:32;27.50;39.90
28552;DHT22;15752;49.560;8.708;2023-06-04T15:39:01;27.60;40.80
28552;DHT22;15752;49.560;8.708;2023-06-04T15:41:30;27.60;40.20
28552;DHT22;15752;49.560;8.708;2023-06-04T15:43:58;27.60;40.30
28552;DHT22;15752;49.560;8.708;2023-06-04T15:46:29;27.60;40.80
28552;DHT22;15752;49.560;8.708;2023-06-04T15:48:57;27.70;41.00